sensor_id;sensor_type;location;lat;lon;timestamp;P1;durP1;ratioP1;P2;durP2;ratioP2
4391;SDS011;2210;51.938;8.488;2023-02-26T00:03:28;7.13;;;2.67;;
4391;SDS011;2210;51.938;8.488;2023-02-26T00:07:28;7.40;;;3.00;;
4391;SDS011;2210;51.938;8.488;2023-02-26T00:11:31;11.73;;;3.50;;
4391;SDS011;2210;51.938;8.488;2023-02-26T00:15:35;6.40;;;3.00;;
4391;SDS011;2210;51.938;8.488;2023-02-26T00:19:36;2.33;;;2.00;;
4391;SDS011;2210;51.938;8.488;2023-02-26T00:23:36;2.30;;;1.60;;
4391;SDS011;2210;51.938;8.488;2023-02-26T00:27:40;1.90;;;1.60;;
4391;SDS011;2210;51.938;8.488;2023-02-26T00:31:43;4.40;;;1.43;;
4391;SDS011;2210;51.938;8.488;2023-02-26T00:35:44;3.60;;;1.50;;
4391;SDS011;2210;51.938;8.488;2023-02-26T00:44:18;3.17;;;1.60;;
4391;SDS011;2210;51.938;8.488;2023-02-26T00:56:40;1.63;;;1.30;;
4391;SDS011;2210;51.938;8.488;2023-02-26T01:00:41;2.20;;;1.27;;
4391;SDS011;2210;51.938;8.488;2023-02-26T01:04:41;2.90;;;1.33;;
4391;SDS011;2210;51.938;8.488;2023-02-26T01:08:58;3.50;;;1.33;;
4391;SDS011;2210;51.938;8.488;2023-02-26T01:13:04;2.47;;;1.30;;
4391;SDS011;2210;51.938;8.488;2023-02-26T01:21:49;3.10;;;1.40;;
4391;SDS011;2210;51.938;8.488;2023-02-26T01:25:55;2.20;;;1.10;;
4391;SDS011;2210;51.938;8.488;2023-02-26T01:29:58;2.63;;;1.20;;
4391;SDS011;2210;51.938;8.488;2023-02-26T01:33:59;5.03;;;1.30;;
4391;SDS011;2210;51.938;8.488;2023-02-26T01:38:21;1.30;;;1.20;;
4391;SDS011;2210;51.938;8.488;2023-02-26T01:42:30;1.00;;;0.90;;
4391;SDS011;2210;51.938;8.488;2023-02-26T01:50:44;1.17;;;1.10;;
4391;SDS011;2210;51.938;8.488;2023-02-26T01:54:44;1.80;;;1.13;;
4391;SDS011;2210;51.938;8.488;2023-02-26T01:58:47;3.85;;;1.23;;
4391;SDS011;2210;51.938;8.488;2023-02-26T02:02:51;1.80;;;1.03;;
4391;SDS011;2210;51.938;8.488;2023-02-26T02:06:58;7.77;;;1.13;;
4391;SDS011;2210;51.938;8.488;2023-02-26T02:11:06;2.77;;;1.10;;
4391;SDS011;2210;51.938;8.488;2023-02-26T02:15:18;2.70;;;1.50;;
4391;SDS011;2210;51.938;8.488;2023-02-26T02:24:00;3.03;;;1.10;;
4391;SDS011;2210;51.938;8.488;2023-02-26T02:28:34;1.27;;;1.00;;
4391;SDS011;2210;51.938;8.488;2023-02-26T02:32:53;1.30;;;1.00;;
4391;SDS011;2210;51.938;8.488;2023-02-26T02:45:51;2.50;;;1.20;;
4391;SDS011;2210;51.938;8.488;2023-02-26T02:50:21;1.30;;;0.73;;
4391;SDS011;2210;51.938;8.488;2023-02-26T02:54:41;2.07;;;1.00;;
4391;SDS011;2210;51.938;8.488;2023-02-26T03:08:05;3.10;;;1.30;;
4391;SDS011;2210;51.938;8.488;2023-02-26T03:12:11;2.63;;;1.20;;
4391;SDS011;2210;51.938;8.488;2023-02-26T03:25:30;5.80;;;1.00;;
4391;SDS011;2210;51.938;8.488;2023-02-26T03:34:24;1.63;;;1.03;;
4391;SDS011;2210;51.938;8.488;2023-02-26T03:38:46;1.33;;;0.90;;
4391;SDS011;2210;51.938;8.488;2023-02-26T03:43:35;1.73;;;1.50;;
4391;SDS011;2210;51.938;8.488;2023-02-26T03:47:29;0.97;;;0.80;;
4391;SDS011;2210;51.938;8.488;2023-02-26T03:51:32;3.90;;;0.90;;
4391;SDS011;2210;51.938;8.488;2023-02-26T03:55:48;0.90;;;0.90;;
4391;SDS011;2210;51.938;8.488;2023-02-26T03:59:58;1.30;;;1.20;;
4391;SDS011;2210;51.938;8.488;2023-02-26T04:04:06;4.00;;;1.00;;
4391;SDS011;2210;51.938;8.488;2023-02-26T04:08:14;1.63;;;1.07;;
4391;SDS011;2210;51.938;8.488;2023-02-26T04:12:15;2.90;;;0.90;;
4391;SDS011;2210;51.938;8.488;2023-02-26T04:16:23;1.10;;;1.00;;
4391;SDS011;2210;51.938;8.488;2023-02-26T04:20:24;1.83;;;1.00;;
4391;SDS011;2210;51.938;8.488;2023-02-26T04:24:30;1.17;;;0.90;;
4391;SDS011;2210;51.938;8.488;2023-02-26T04:28:33;1.00;;;1.00;;
4391;SDS011;2210;51.938;8.488;2023-02-26T04:32:42;3.77;;;1.10;;
4391;SDS011;2210;51.938;8.488;2023-02-26T04:36:46;2.00;;;1.00;;
4391;SDS011;2210;51.938;8.488;2023-02-26T04:40:47;2.50;;;1.00;;
4391;SDS011;2210;51.938;8.488;2023-02-26T04:44:49;3.20;;;1.07;;
4391;SDS011;2210;51.938;8.488;2023-02-26T04:48:49;1.43;;;1.10;;
4391;SDS011;2210;51.938;8.488;2023-02-26T04:52:55;2.00;;;0.90;;
4391;SDS011;2210;51.938;8.488;2023-02-26T04:56:58;2.20;;;1.13;;
4391;SDS011;2210;51.938;8.488;2023-02-26T05:01:02;1.20;;;1.10;;
4391;SDS011;2210;51.938;8.488;2023-02-26T05:05:02;1.00;;;0.90;;
4391;SDS011;2210;51.938;8.488;2023-02-26T05:09:03;1.60;;;0.90;;
4391;SDS011;2210;51.938;8.488;2023-02-26T05:13:04;1.27;;;1.07;;
4391;SDS011;2210;51.938;8.488;2023-02-26T05:17:04;3.03;;;1.07;;
4391;SDS011;2210;51.938;8.488;2023-02-26T05:21:05;0.98;;;0.88;;
4391;SDS011;2210;51.938;8.488;2023-02-26T05:25:11;1.40;;;1.20;;
4391;SDS011;2210;51.938;8.488;2023-02-26T05:29:11;1.90;;;1.47;;
4391;SDS011;2210;51.938;8.488;2023-02-26T05:33:12;2.05;;;1.08;;
4391;SDS011;2210;51.938;8.488;2023-02-26T05:37:12;1.20;;;0.90;;
4391;SDS011;2210;51.938;8.488;2023-02-26T05:41:18;1.17;;;0.83;;
4391;SDS011;2210;51.938;8.488;2023-02-26T05:45:19;6.13;;;1.70;;
4391;SDS011;2210;51.938;8.488;2023-02-26T05:53:38;1.20;;;1.10;;
4391;SDS011;2210;51.938;8.488;2023-02-26T05:57:41;0.80;;;0.80;;
4391;SDS011;2210;51.938;8.488;2023-02-26T06:01:41;2.20;;;1.13;;
4391;SDS011;2210;51.938;8.488;2023-02-26T06:05:41;3.77;;;1.10;;
4391;SDS011;2210;51.938;8.488;2023-02-26T06:09:41;2.27;;;1.00;;
4391;SDS011;2210;51.938;8.488;2023-02-26T06:13:54;2.90;;;1.07;;
4391;SDS011;2210;51.938;8.488;2023-02-26T06:17:58;3.47;;;1.00;;
4391;SDS011;2210;51.938;8.488;2023-02-26T06:22:01;1.67;;;1.10;;
4391;SDS011;2210;51.938;8.488;2023-02-26T06:26:11;3.90;;;0.90;;
4391;SDS011;2210;51.938;8.488;2023-02-26T06:30:12;1.40;;;0.80;;
4391;SDS011;2210;51.938;8.488;2023-02-26T06:34:12;2.03;;;1.67;;
4391;SDS011;2210;51.938;8.488;2023-02-26T06:38:21;2.67;;;0.97;;
4391;SDS011;2210;51.938;8.488;2023-02-26T06:42:24;1.20;;;0.77;;
4391;SDS011;2210;51.938;8.488;2023-02-26T06:50:56;1.20;;;1.10;;
4391;SDS011;2210;51.938;8.488;2023-02-26T06:54:56;1.67;;;0.97;;
4391;SDS011;2210;51.938;8.488;2023-02-26T06:59:03;1.03;;;0.80;;
4391;SDS011;2210;51.938;8.488;2023-02-26T07:03:09;2.00;;;1.00;;
4391;SDS011;2210;51.938;8.488;2023-02-26T07:07:18;1.43;;;0.70;;
4391;SDS011;2210;51.938;8.488;2023-02-26T07:11:18;7.80;;;1.17;;
4391;SDS011;2210;51.938;8.488;2023-02-26T07:15:25;2.47;;;0.83;;
4391;SDS011;2210;51.938;8.488;2023-02-26T07:19:25;1.90;;;1.00;;
4391;SDS011;2210;51.938;8.488;2023-02-26T07:23:28;3.90;;;1.20;;
4391;SDS011;2210;51.938;8.488;2023-02-26T07:27:44;3.50;;;0.93;;
4391;SDS011;2210;51.938;8.488;2023-02-26T07:31:44;2.63;;;0.93;;
4391;SDS011;2210;51.938;8.488;2023-02-26T07:35:45;1.25;;;1.00;;
4391;SDS011;2210;51.938;8.488;2023-02-26T07:39:49;1.97;;;1.30;;
4391;SDS011;2210;51.938;8.488;2023-02-26T07:43:49;2.70;;;1.07;;
4391;SDS011;2210;51.938;8.488;2023-02-26T07:47:52;4.80;;;1.10;;
4391;SDS011;2210;51.938;8.488;2023-02-26T07:51:56;1.30;;;1.03;;
4391;SDS011;2210;51.938;8.488;2023-02-26T07:55:56;1.10;;;1.00;;
4391;SDS011;2210;51.938;8.488;2023-02-26T07:59:59;1.03;;;0.90;;
4391;SDS011;2210;51.938;8.488;2023-02-26T08:04:03;2.23;;;1.10;;
4391;SDS011;2210;51.938;8.488;2023-02-26T08:08:10;0.83;;;0.80;;
4391;SDS011;2210;51.938;8.488;2023-02-26T08:12:13;1.67;;;1.00;;
4391;SDS011;2210;51.938;8.488;2023-02-26T08:16:13;1.53;;;1.30;;
4391;SDS011;2210;51.938;8.488;2023-02-26T08:20:13;1.97;;;0.90;;
4391;SDS011;2210;51.938;8.488;2023-02-26T08:24:21;1.20;;;1.10;;
4391;SDS011;2210;51.938;8.488;2023-02-26T08:28:21;4.57;;;1.00;;
4391;SDS011;2210;51.938;8.488;2023-02-26T08:32:27;5.40;;;0.83;;
4391;SDS011;2210;51.938;8.488;2023-02-26T08:36:28;3.13;;;1.50;;
4391;SDS011;2210;51.938;8.488;2023-02-26T08:40:28;1.57;;;1.30;;
4391;SDS011;2210;51.938;8.488;2023-02-26T08:44:28;1.77;;;0.83;;
4391;SDS011;2210;51.938;8.488;2023-02-26T08:48:28;4.85;;;0.90;;
4391;SDS011;2210;51.938;8.488;2023-02-26T08:52:35;3.27;;;1.03;;
4391;SDS011;2210;51.938;8.488;2023-02-26T08:56:35;0.87;;;0.80;;
4391;SDS011;2210;51.938;8.488;2023-02-26T09:00:35;1.50;;;0.87;;
4391;SDS011;2210;51.938;8.488;2023-02-26T09:04:42;0.70;;;0.70;;
4391;SDS011;2210;51.938;8.488;2023-02-26T09:08:42;1.43;;;1.07;;
4391;SDS011;2210;51.938;8.488;2023-02-26T09:12:42;0.80;;;0.80;;
4391;SDS011;2210;51.938;8.488;2023-02-26T09:16:43;3.13;;;1.33;;
4391;SDS011;2210;51.938;8.488;2023-02-26T09:20:43;2.00;;;1.07;;
4391;SDS011;2210;51.938;8.488;2023-02-26T09:24:44;6.33;;;1.30;;
4391;SDS011;2210;51.938;8.488;2023-02-26T09:28:44;1.27;;;0.90;;
4391;SDS011;2210;51.938;8.488;2023-02-26T09:32:44;1.27;;;0.70;;
4391;SDS011;2210;51.938;8.488;2023-02-26T09:36:48;1.00;;;0.90;;
4391;SDS011;2210;51.938;8.488;2023-02-26T09:40:53;1.57;;;0.77;;
4391;SDS011;2210;51.938;8.488;2023-02-26T09:44:59;1.70;;;0.70;;
4391;SDS011;2210;51.938;8.488;2023-02-26T09:49:06;1.30;;;1.00;;
4391;SDS011;2210;51.938;8.488;2023-02-26T09:53:28;1.50;;;0.87;;
4391;SDS011;2210;51.938;8.488;2023-02-26T09:57:40;0.80;;;0.80;;
4391;SDS011;2210;51.938;8.488;2023-02-26T10:01:45;1.33;;;0.87;;
4391;SDS011;2210;51.938;8.488;2023-02-26T10:05:59;1.67;;;0.90;;
4391;SDS011;2210;51.938;8.488;2023-02-26T10:10:18;1.10;;;1.00;;
4391;SDS011;2210;51.938;8.488;2023-02-26T10:23:39;0.70;;;0.70;;
4391;SDS011;2210;51.938;8.488;2023-02-26T10:27:59;1.33;;;0.63;;
4391;SDS011;2210;51.938;8.488;2023-02-26T10:41:08;2.00;;;0.70;;
4391;SDS011;2210;51.938;8.488;2023-02-26T10:49:50;1.03;;;0.67;;
4391;SDS011;2210;51.938;8.488;2023-02-26T10:53:54;0.60;;;0.60;;
4391;SDS011;2210;51.938;8.488;2023-02-26T10:58:31;1.10;;;0.70;;
4391;SDS011;2210;51.938;8.488;2023-02-26T11:06:52;0.60;;;0.60;;
4391;SDS011;2210;51.938;8.488;2023-02-26T11:10:56;1.20;;;0.73;;
4391;SDS011;2210;51.938;8.488;2023-02-26T11:15:00;0.70;;;0.67;;
4391;SDS011;2210;51.938;8.488;2023-02-26T11:19:01;0.80;;;0.77;;
4391;SDS011;2210;51.938;8.488;2023-02-26T11:23:06;0.83;;;0.60;;
4391;SDS011;2210;51.938;8.488;2023-02-26T11:27:26;1.50;;;0.60;;
4391;SDS011;2210;51.938;8.488;2023-02-26T11:31:31;0.50;;;0.50;;
4391;SDS011;2210;51.938;8.488;2023-02-26T11:35:31;0.90;;;0.60;;
4391;SDS011;2210;51.938;8.488;2023-02-26T11:39:35;0.90;;;0.70;;
4391;SDS011;2210;51.938;8.488;2023-02-26T11:43:44;1.90;;;0.80;;
4391;SDS011;2210;51.938;8.488;2023-02-26T11:48:03;1.23;;;1.00;;
4391;SDS011;2210;51.938;8.488;2023-02-26T11:56:12;1.33;;;0.60;;
4391;SDS011;2210;51.938;8.488;2023-02-26T12:00:17;0.60;;;0.60;;
4391;SDS011;2210;51.938;8.488;2023-02-26T12:04:23;1.17;;;0.70;;
4391;SDS011;2210;51.938;8.488;2023-02-26T12:08:27;2.10;;;0.70;;
4391;SDS011;2210;51.938;8.488;2023-02-26T12:12:37;2.00;;;0.70;;
4391;SDS011;2210;51.938;8.488;2023-02-26T12:16:59;3.80;;;0.80;;
4391;SDS011;2210;51.938;8.488;2023-02-26T12:25:22;1.87;;;0.87;;
4391;SDS011;2210;51.938;8.488;2023-02-26T12:43:06;1.30;;;0.60;;
4391;SDS011;2210;51.938;8.488;2023-02-26T12:51:53;0.70;;;0.60;;
4391;SDS011;2210;51.938;8.488;2023-02-26T12:56:15;1.17;;;0.60;;
4391;SDS011;2210;51.938;8.488;2023-02-26T13:05:06;0.60;;;0.60;;
4391;SDS011;2210;51.938;8.488;2023-02-26T13:09:22;0.80;;;0.60;;
4391;SDS011;2210;51.938;8.488;2023-02-26T13:21:58;1.90;;;0.90;;
4391;SDS011;2210;51.938;8.488;2023-02-26T13:26:05;0.80;;;0.80;;
4391;SDS011;2210;51.938;8.488;2023-02-26T13:34:15;1.80;;;0.87;;
4391;SDS011;2210;51.938;8.488;2023-02-26T13:38:33;1.73;;;0.60;;
4391;SDS011;2210;51.938;8.488;2023-02-26T13:42:42;0.60;;;0.60;;
4391;SDS011;2210;51.938;8.488;2023-02-26T13:50:56;1.17;;;0.70;;
4391;SDS011;2210;51.938;8.488;2023-02-26T13:55:34;0.70;;;0.70;;
4391;SDS011;2210;51.938;8.488;2023-02-26T14:03:51;0.93;;;0.90;;
4391;SDS011;2210;51.938;8.488;2023-02-26T14:12:39;1.13;;;0.97;;
4391;SDS011;2210;51.938;8.488;2023-02-26T14:16:42;1.33;;;1.00;;
4391;SDS011;2210;51.938;8.488;2023-02-26T14:20:44;2.00;;;0.87;;
4391;SDS011;2210;51.938;8.488;2023-02-26T14:24:51;1.00;;;0.73;;
4391;SDS011;2210;51.938;8.488;2023-02-26T14:28:55;3.13;;;1.70;;
4391;SDS011;2210;51.938;8.488;2023-02-26T14:33:06;1.00;;;1.00;;
4391;SDS011;2210;51.938;8.488;2023-02-26T14:37:10;1.50;;;0.90;;
4391;SDS011;2210;51.938;8.488;2023-02-26T14:45:28;0.80;;;0.60;;
4391;SDS011;2210;51.938;8.488;2023-02-26T14:49:35;1.73;;;1.00;;
4391;SDS011;2210;51.938;8.488;2023-02-26T14:53:48;0.90;;;0.80;;
4391;SDS011;2210;51.938;8.488;2023-02-26T15:23:49;1.03;;;0.90;;
4391;SDS011;2210;51.938;8.488;2023-02-26T15:27:55;2.10;;;0.60;;
4391;SDS011;2210;51.938;8.488;2023-02-26T15:32:05;3.07;;;1.03;;
4391;SDS011;2210;51.938;8.488;2023-02-26T15:36:17;4.00;;;2.70;;
4391;SDS011;2210;51.938;8.488;2023-02-26T15:40:20;0.90;;;0.90;;
4391;SDS011;2210;51.938;8.488;2023-02-26T15:44:30;1.80;;;0.70;;
4391;SDS011;2210;51.938;8.488;2023-02-26T15:48:35;1.17;;;0.60;;
4391;SDS011;2210;51.938;8.488;2023-02-26T15:52:41;3.90;;;0.80;;
4391;SDS011;2210;51.938;8.488;2023-02-26T15:56:41;1.97;;;0.80;;
4391;SDS011;2210;51.938;8.488;2023-02-26T16:00:42;0.60;;;0.60;;
4391;SDS011;2210;51.938;8.488;2023-02-26T16:04:42;0.73;;;0.73;;
4391;SDS011;2210;51.938;8.488;2023-02-26T16:08:43;0.70;;;0.70;;
4391;SDS011;2210;51.938;8.488;2023-02-26T16:12:43;1.70;;;0.60;;
4391;SDS011;2210;51.938;8.488;2023-02-26T16:16:49;1.07;;;0.97;;
4391;SDS011;2210;51.938;8.488;2023-02-26T16:21:08;1.70;;;0.90;;
4391;SDS011;2210;51.938;8.488;2023-02-26T16:25:14;1.10;;;1.00;;
4391;SDS011;2210;51.938;8.488;2023-02-26T16:29:21;0.90;;;0.80;;
4391;SDS011;2210;51.938;8.488;2023-02-26T16:33:24;1.20;;;0.90;;
4391;SDS011;2210;51.938;8.488;2023-02-26T16:37:32;0.90;;;0.90;;
4391;SDS011;2210;51.938;8.488;2023-02-26T16:41:35;1.33;;;1.07;;
4391;SDS011;2210;51.938;8.488;2023-02-26T16:49:39;2.75;;;2.33;;
4391;SDS011;2210;51.938;8.488;2023-02-26T16:53:42;1.97;;;0.90;;
4391;SDS011;2210;51.938;8.488;2023-02-26T16:57:46;1.60;;;1.50;;
4391;SDS011;2210;51.938;8.488;2023-02-26T17:01:50;2.60;;;1.00;;
4391;SDS011;2210;51.938;8.488;2023-02-26T17:06:10;0.90;;;0.90;;
4391;SDS011;2210;51.938;8.488;2023-02-26T17:10:18;2.40;;;1.57;;
4391;SDS011;2210;51.938;8.488;2023-02-26T17:14:24;1.17;;;1.07;;
4391;SDS011;2210;51.938;8.488;2023-02-26T17:18:30;3.67;;;1.10;;
4391;SDS011;2210;51.938;8.488;2023-02-26T17:22:30;2.07;;;1.40;;
4391;SDS011;2210;51.938;8.488;2023-02-26T17:26:30;1.80;;;1.15;;
4391;SDS011;2210;51.938;8.488;2023-02-26T17:30:31;0.90;;;0.90;;
4391;SDS011;2210;51.938;8.488;2023-02-26T17:34:41;1.30;;;1.20;;
4391;SDS011;2210;51.938;8.488;2023-02-26T17:38:45;1.90;;;1.80;;
4391;SDS011;2210;51.938;8.488;2023-02-26T17:42:46;1.57;;;1.47;;
4391;SDS011;2210;51.938;8.488;2023-02-26T17:46:50;1.87;;;1.77;;
4391;SDS011;2210;51.938;8.488;2023-02-26T17:50:54;1.73;;;1.63;;
4391;SDS011;2210;51.938;8.488;2023-02-26T17:55:01;3.40;;;1.20;;
4391;SDS011;2210;51.938;8.488;2023-02-26T17:59:02;1.10;;;0.90;;
4391;SDS011;2210;51.938;8.488;2023-02-26T18:03:07;8.63;;;1.67;;
4391;SDS011;2210;51.938;8.488;2023-02-26T18:07:11;1.50;;;1.40;;
4391;SDS011;2210;51.938;8.488;2023-02-26T18:11:15;2.40;;;1.93;;
4391;SDS011;2210;51.938;8.488;2023-02-26T18:15:16;1.10;;;1.10;;
4391;SDS011;2210;51.938;8.488;2023-02-26T18:19:16;2.15;;;1.92;;
4391;SDS011;2210;51.938;8.488;2023-02-26T18:23:16;1.15;;;1.05;;
4391;SDS011;2210;51.938;8.488;2023-02-26T18:27:18;1.40;;;1.23;;
4391;SDS011;2210;51.938;8.488;2023-02-26T18:31:20;1.47;;;1.33;;
4391;SDS011;2210;51.938;8.488;2023-02-26T18:35:23;1.47;;;1.37;;
4391;SDS011;2210;51.938;8.488;2023-02-26T18:39:33;1.60;;;1.23;;
4391;SDS011;2210;51.938;8.488;2023-02-26T18:43:36;2.40;;;1.67;;
4391;SDS011;2210;51.938;8.488;2023-02-26T18:47:39;1.40;;;1.30;;
4391;SDS011;2210;51.938;8.488;2023-02-26T18:51:39;5.67;;;2.00;;
4391;SDS011;2210;51.938;8.488;2023-02-26T18:55:40;5.30;;;2.78;;
4391;SDS011;2210;51.938;8.488;2023-02-26T18:59:40;2.37;;;1.77;;
4391;SDS011;2210;51.938;8.488;2023-02-26T19:03:40;1.63;;;1.53;;
4391;SDS011;2210;51.938;8.488;2023-02-26T19:07:41;1.47;;;1.30;;
4391;SDS011;2210;51.938;8.488;2023-02-26T19:11:41;1.37;;;1.20;;
4391;SDS011;2210;51.938;8.488;2023-02-26T19:15:45;3.30;;;2.77;;
4391;SDS011;2210;51.938;8.488;2023-02-26T19:19:45;2.53;;;2.33;;
4391;SDS011;2210;51.938;8.488;2023-02-26T19:23:45;3.97;;;3.60;;
4391;SDS011;2210;51.938;8.488;2023-02-26T19:27:53;4.57;;;3.70;;
4391;SDS011;2210;51.938;8.488;2023-02-26T19:31:54;4.73;;;3.13;;
4391;SDS011;2210;51.938;8.488;2023-02-26T19:36:01;2.50;;;1.50;;
4391;SDS011;2210;51.938;8.488;2023-02-26T19:40:02;2.73;;;2.20;;
4391;SDS011;2210;51.938;8.488;2023-02-26T19:44:08;2.10;;;1.90;;
4391;SDS011;2210;51.938;8.488;2023-02-26T19:48:12;1.90;;;1.63;;
4391;SDS011;2210;51.938;8.488;2023-02-26T19:52:12;3.93;;;3.27;;
4391;SDS011;2210;51.938;8.488;2023-02-26T19:56:12;5.27;;;4.83;;
4391;SDS011;2210;51.938;8.488;2023-02-26T20:00:16;5.83;;;5.10;;
4391;SDS011;2210;51.938;8.488;2023-02-26T20:04:19;5.67;;;5.13;;
4391;SDS011;2210;51.938;8.488;2023-02-26T20:08:19;5.87;;;3.00;;
4391;SDS011;2210;51.938;8.488;2023-02-26T20:12:20;2.63;;;2.07;;
4391;SDS011;2210;51.938;8.488;2023-02-26T20:16:20;2.10;;;1.63;;
4391;SDS011;2210;51.938;8.488;2023-02-26T20:20:24;2.55;;;1.90;;
4391;SDS011;2210;51.938;8.488;2023-02-26T20:24:24;2.77;;;1.90;;
4391;SDS011;2210;51.938;8.488;2023-02-26T20:28:25;7.67;;;5.70;;
4391;SDS011;2210;51.938;8.488;2023-02-26T20:32:26;5.53;;;4.47;;
4391;SDS011;2210;51.938;8.488;2023-02-26T20:36:26;6.23;;;4.67;;
4391;SDS011;2210;51.938;8.488;2023-02-26T20:40:30;7.37;;;5.03;;
4391;SDS011;2210;51.938;8.488;2023-02-26T20:44:30;7.23;;;4.83;;
4391;SDS011;2210;51.938;8.488;2023-02-26T20:48:30;6.70;;;4.73;;
4391;SDS011;2210;51.938;8.488;2023-02-26T20:52:31;7.60;;;4.80;;
4391;SDS011;2210;51.938;8.488;2023-02-26T20:56:34;4.50;;;3.13;;
4391;SDS011;2210;51.938;8.488;2023-02-26T21:00:35;4.53;;;3.17;;
4391;SDS011;2210;51.938;8.488;2023-02-26T21:04:38;3.28;;;2.33;;
4391;SDS011;2210;51.938;8.488;2023-02-26T21:08:48;4.73;;;2.60;;
4391;SDS011;2210;51.938;8.488;2023-02-26T21:12:54;3.73;;;2.87;;
4391;SDS011;2210;51.938;8.488;2023-02-26T21:16:57;3.73;;;2.17;;
4391;SDS011;2210;51.938;8.488;2023-02-26T21:21:01;2.93;;;2.03;;
4391;SDS011;2210;51.938;8.488;2023-02-26T21:25:04;2.20;;;2.00;;
4391;SDS011;2210;51.938;8.488;2023-02-26T21:29:05;3.60;;;2.10;;
4391;SDS011;2210;51.938;8.488;2023-02-26T21:33:05;2.13;;;1.93;;
4391;SDS011;2210;51.938;8.488;2023-02-26T21:37:09;2.50;;;2.10;;
4391;SDS011;2210;51.938;8.488;2023-02-26T21:41:10;2.30;;;2.10;;
4391;SDS011;2210;51.938;8.488;2023-02-26T21:45:19;3.55;;;1.92;;
4391;SDS011;2210;51.938;8.488;2023-02-26T21:49:26;1.77;;;1.67;;
4391;SDS011;2210;51.938;8.488;2023-02-26T21:53:35;2.10;;;1.70;;
4391;SDS011;2210;51.938;8.488;2023-02-26T22:02:01;2.50;;;1.87;;
4391;SDS011;2210;51.938;8.488;2023-02-26T22:06:03;2.90;;;2.10;;
4391;SDS011;2210;51.938;8.488;2023-02-26T22:10:07;2.70;;;1.83;;
4391;SDS011;2210;51.938;8.488;2023-02-26T22:14:08;3.43;;;2.53;;
4391;SDS011;2210;51.938;8.488;2023-02-26T22:18:08;4.10;;;3.55;;
4391;SDS011;2210;51.938;8.488;2023-02-26T22:22:14;4.30;;;3.60;;
4391;SDS011;2210;51.938;8.488;2023-02-26T22:26:15;3.00;;;2.60;;
4391;SDS011;2210;51.938;8.488;2023-02-26T22:30:16;9.90;;;3.10;;
4391;SDS011;2210;51.938;8.488;2023-02-26T22:34:19;2.20;;;2.00;;
4391;SDS011;2210;51.938;8.488;2023-02-26T22:38:32;3.43;;;2.30;;
4391;SDS011;2210;51.938;8.488;2023-02-26T22:42:32;2.40;;;1.67;;
4391;SDS011;2210;51.938;8.488;2023-02-26T22:46:33;2.17;;;1.97;;
4391;SDS011;2210;51.938;8.488;2023-02-26T22:50:46;2.93;;;1.50;;
4391;SDS011;2210;51.938;8.488;2023-02-26T22:54:56;1.70;;;1.50;;
4391;SDS011;2210;51.938;8.488;2023-02-26T22:59:03;2.13;;;1.60;;
4391;SDS011;2210;51.938;8.488;2023-02-26T23:03:15;4.73;;;1.73;;
4391;SDS011;2210;51.938;8.488;2023-02-26T23:07:21;2.40;;;1.57;;
4391;SDS011;2210;51.938;8.488;2023-02-26T23:11:22;2.60;;;1.63;;
4391;SDS011;2210;51.938;8.488;2023-02-26T23:15:22;2.23;;;1.70;;
4391;SDS011;2210;51.938;8.488;2023-02-26T23:19:22;4.83;;;1.80;;
4391;SDS011;2210;51.938;8.488;2023-02-26T23:23:23;1.97;;;1.77;;
4391;SDS011;2210;51.938;8.488;2023-02-26T23:27:26;3.13;;;1.30;;
4391;SDS011;2210;51.938;8.488;2023-02-26T23:31:27;3.20;;;1.40;;
4391;SDS011;2210;51.938;8.488;2023-02-26T23:35:30;1.60;;;1.50;;
4391;SDS011;2210;51.938;8.488;2023-02-26T23:39:31;4.27;;;1.40;;
4391;SDS011;2210;51.938;8.488;2023-02-26T23:43:31;3.27;;;1.57;;
4391;SDS011;2210;51.938;8.488;2023-02-26T23:47:32;2.10;;;1.53;;
4391;SDS011;2210;51.938;8.488;2023-02-26T23:51:32;5.00;;;1.80;;
4391;SDS011;2210;51.938;8.488;2023-02-26T23:55:34;1.80;;;1.67;;
4391;SDS011;2210;51.938;8.488;2023-02-26T23:59:35;2.07;;;1.70;;
